sensor_id;sensor_type;location;lat;lon;timestamp;P1;durP1;ratioP1;P2;durP2;ratioP2
12816;SDS011;6473;51.552;6.716;2022-08-20T00:00:21;15.95;;;11.65;;
12816;SDS011;6473;51.552;6.716;2022-08-20T00:02:51;15.45;;;11.00;;
12816;SDS011;6473;51.552;6.716;2022-08-20T00:05:21;16.98;;;11.18;;
12816;SDS011;6473;51.552;6.716;2022-08-20T00:07:51;14.15;;;11.00;;
12816;SDS011;6473;51.552;6.716;2022-08-20T00:10:18;16.55;;;10.98;;
12816;SDS011;6473;51.552;6.716;2022-08-20T00:12:47;19.88;;;12.18;;
12816;SDS011;6473;51.552;6.716;2022-08-20T00:15:29;14.52;;;11.50;;
12816;SDS011;6473;51.552;6.716;2022-08-20T00:18:08;17.27;;;11.93;;
12816;SDS011;6473;51.552;6.716;2022-08-20T00:20:36;15.82;;;10.93;;
12816;SDS011;6473;51.552;6.716;2022-08-20T00:23:05;15.57;;;10.73;;
12816;SDS011;6473;51.552;6.716;2022-08-20T00:25:32;16.75;;;11.48;;
12816;SDS011;6473;51.552;6.716;2022-08-20T00:28:18;15.27;;;9.90;;
12816;SDS011;6473;51.552;6.716;2022-08-20T00:30:53;16.27;;;11.73;;
12816;SDS011;6473;51.552;6.716;2022-08-20T00:33:20;14.35;;;10.45;;
12816;SDS011;6473;51.552;6.716;2022-08-20T00:35:52;14.20;;;10.90;;
12816;SDS011;6473;51.552;6.716;2022-08-20T00:38:22;16.60;;;11.48;;
12816;SDS011;6473;51.552;6.716;2022-08-20T00:40:50;16.20;;;11.00;;
12816;SDS011;6473;51.552;6.716;2022-08-20T00:43:25;15.95;;;10.73;;
12816;SDS011;6473;51.552;6.716;2022-08-20T00:45:57;15.95;;;10.55;;
12816;SDS011;6473;51.552;6.716;2022-08-20T00:48:26;12.35;;;9.68;;
12816;SDS011;6473;51.552;6.716;2022-08-20T00:50:55;12.60;;;8.60;;
12816;SDS011;6473;51.552;6.716;2022-08-20T00:53:28;9.80;;;8.18;;
12816;SDS011;6473;51.552;6.716;2022-08-20T00:55:55;8.32;;;6.65;;
12816;SDS011;6473;51.552;6.716;2022-08-20T00:58:22;7.05;;;5.97;;
12816;SDS011;6473;51.552;6.716;2022-08-20T01:03:45;9.20;;;6.80;;
12816;SDS011;6473;51.552;6.716;2022-08-20T01:06:12;7.57;;;6.70;;
12816;SDS011;6473;51.552;6.716;2022-08-20T01:08:52;7.25;;;6.22;;
12816;SDS011;6473;51.552;6.716;2022-08-20T01:14:05;8.93;;;6.50;;
12816;SDS011;6473;51.552;6.716;2022-08-20T01:16:50;7.90;;;6.25;;
12816;SDS011;6473;51.552;6.716;2022-08-20T01:19:20;5.90;;;5.30;;
12816;SDS011;6473;51.552;6.716;2022-08-20T01:22:05;6.10;;;5.50;;
12816;SDS011;6473;51.552;6.716;2022-08-20T01:25:00;7.07;;;5.40;;
12816;SDS011;6473;51.552;6.716;2022-08-20T01:27:34;6.70;;;5.45;;
12816;SDS011;6473;51.552;6.716;2022-08-20T01:30:03;6.82;;;5.60;;
12816;SDS011;6473;51.552;6.716;2022-08-20T01:32:32;6.07;;;5.05;;
12816;SDS011;6473;51.552;6.716;2022-08-20T01:34:59;5.28;;;4.72;;
12816;SDS011;6473;51.552;6.716;2022-08-20T01:37:26;4.80;;;4.40;;
12816;SDS011;6473;51.552;6.716;2022-08-20T01:39:54;6.88;;;5.18;;
12816;SDS011;6473;51.552;6.716;2022-08-20T01:42:21;5.88;;;5.28;;
12816;SDS011;6473;51.552;6.716;2022-08-20T01:44:56;6.95;;;5.38;;
12816;SDS011;6473;51.552;6.716;2022-08-20T01:47:26;5.88;;;4.90;;
12816;SDS011;6473;51.552;6.716;2022-08-20T01:49:57;7.82;;;5.28;;
12816;SDS011;6473;51.552;6.716;2022-08-20T01:52:30;6.13;;;5.40;;
12816;SDS011;6473;51.552;6.716;2022-08-20T01:55:02;8.05;;;5.57;;
12816;SDS011;6473;51.552;6.716;2022-08-20T01:57:32;6.90;;;5.40;;
12816;SDS011;6473;51.552;6.716;2022-08-20T02:00:04;5.22;;;4.57;;
12816;SDS011;6473;51.552;6.716;2022-08-20T02:02:34;6.95;;;5.10;;
12816;SDS011;6473;51.552;6.716;2022-08-20T02:05:01;5.18;;;4.72;;
12816;SDS011;6473;51.552;6.716;2022-08-20T02:07:28;5.50;;;5.00;;
12816;SDS011;6473;51.552;6.716;2022-08-20T02:09:56;6.60;;;5.63;;
12816;SDS011;6473;51.552;6.716;2022-08-20T02:12:24;6.30;;;4.97;;
12816;SDS011;6473;51.552;6.716;2022-08-20T02:14:52;7.20;;;5.40;;
12816;SDS011;6473;51.552;6.716;2022-08-20T02:17:23;7.13;;;5.00;;
12816;SDS011;6473;51.552;6.716;2022-08-20T02:20:08;6.38;;;5.35;;
12816;SDS011;6473;51.552;6.716;2022-08-20T02:22:39;7.25;;;5.25;;
12816;SDS011;6473;51.552;6.716;2022-08-20T02:25:12;6.82;;;5.50;;
12816;SDS011;6473;51.552;6.716;2022-08-20T02:27:43;6.85;;;5.75;;
12816;SDS011;6473;51.552;6.716;2022-08-20T02:30:17;8.77;;;5.95;;
12816;SDS011;6473;51.552;6.716;2022-08-20T02:32:47;6.25;;;5.65;;
12816;SDS011;6473;51.552;6.716;2022-08-20T02:35:15;7.38;;;5.95;;
12816;SDS011;6473;51.552;6.716;2022-08-20T02:37:43;6.80;;;6.10;;
12816;SDS011;6473;51.552;6.716;2022-08-20T02:40:12;6.80;;;5.68;;
12816;SDS011;6473;51.552;6.716;2022-08-20T02:42:41;6.82;;;5.65;;
12816;SDS011;6473;51.552;6.716;2022-08-20T02:45:09;8.15;;;6.28;;
12816;SDS011;6473;51.552;6.716;2022-08-20T02:47:41;7.93;;;6.60;;
12816;SDS011;6473;51.552;6.716;2022-08-20T02:50:11;9.77;;;6.68;;
12816;SDS011;6473;51.552;6.716;2022-08-20T02:52:42;7.53;;;6.15;;
12816;SDS011;6473;51.552;6.716;2022-08-20T02:55:09;8.93;;;7.28;;
12816;SDS011;6473;51.552;6.716;2022-08-20T02:57:38;7.43;;;6.53;;
12816;SDS011;6473;51.552;6.716;2022-08-20T03:00:06;7.70;;;5.60;;
12816;SDS011;6473;51.552;6.716;2022-08-20T03:02:35;10.10;;;6.70;;
12816;SDS011;6473;51.552;6.716;2022-08-20T03:05:02;9.55;;;6.85;;
12816;SDS011;6473;51.552;6.716;2022-08-20T03:07:31;8.50;;;6.50;;
12816;SDS011;6473;51.552;6.716;2022-08-20T03:10:05;8.60;;;6.45;;
12816;SDS011;6473;51.552;6.716;2022-08-20T03:12:33;10.18;;;6.90;;
12816;SDS011;6473;51.552;6.716;2022-08-20T03:15:00;9.55;;;6.72;;
12816;SDS011;6473;51.552;6.716;2022-08-20T03:17:27;9.90;;;8.00;;
12816;SDS011;6473;51.552;6.716;2022-08-20T03:19:54;13.77;;;8.80;;
12816;SDS011;6473;51.552;6.716;2022-08-20T03:22:21;11.35;;;8.43;;
12816;SDS011;6473;51.552;6.716;2022-08-20T03:24:50;11.40;;;9.20;;
12816;SDS011;6473;51.552;6.716;2022-08-20T03:27:17;14.02;;;8.88;;
12816;SDS011;6473;51.552;6.716;2022-08-20T03:29:44;12.10;;;8.73;;
12816;SDS011;6473;51.552;6.716;2022-08-20T03:32:11;9.77;;;8.23;;
12816;SDS011;6473;51.552;6.716;2022-08-20T03:34:44;10.77;;;9.23;;
12816;SDS011;6473;51.552;6.716;2022-08-20T03:37:11;11.40;;;9.02;;
12816;SDS011;6473;51.552;6.716;2022-08-20T03:39:38;12.68;;;9.75;;
12816;SDS011;6473;51.552;6.716;2022-08-20T03:42:13;12.68;;;9.15;;
12816;SDS011;6473;51.552;6.716;2022-08-20T03:44:40;13.88;;;10.10;;
12816;SDS011;6473;51.552;6.716;2022-08-20T03:47:07;15.32;;;10.98;;
12816;SDS011;6473;51.552;6.716;2022-08-20T03:49:34;13.45;;;10.15;;
12816;SDS011;6473;51.552;6.716;2022-08-20T03:52:02;14.27;;;10.30;;
12816;SDS011;6473;51.552;6.716;2022-08-20T03:54:31;13.10;;;9.90;;
12816;SDS011;6473;51.552;6.716;2022-08-20T03:57:16;12.35;;;9.95;;
12816;SDS011;6473;51.552;6.716;2022-08-20T03:59:58;12.95;;;10.15;;
12816;SDS011;6473;51.552;6.716;2022-08-20T04:02:26;13.73;;;9.77;;
12816;SDS011;6473;51.552;6.716;2022-08-20T04:04:58;12.38;;;10.02;;
12816;SDS011;6473;51.552;6.716;2022-08-20T04:07:25;15.30;;;11.07;;
12816;SDS011;6473;51.552;6.716;2022-08-20T04:09:53;14.35;;;11.15;;
12816;SDS011;6473;51.552;6.716;2022-08-20T04:12:23;16.20;;;11.00;;
12816;SDS011;6473;51.552;6.716;2022-08-20T04:15:08;15.23;;;10.45;;
12816;SDS011;6473;51.552;6.716;2022-08-20T04:17:38;13.40;;;10.43;;
12816;SDS011;6473;51.552;6.716;2022-08-20T04:20:07;14.88;;;10.10;;
12816;SDS011;6473;51.552;6.716;2022-08-20T04:22:37;13.65;;;10.15;;
12816;SDS011;6473;51.552;6.716;2022-08-20T04:25:05;14.43;;;10.70;;
12816;SDS011;6473;51.552;6.716;2022-08-20T04:27:36;13.85;;;10.75;;
12816;SDS011;6473;51.552;6.716;2022-08-20T04:30:05;13.52;;;10.40;;
12816;SDS011;6473;51.552;6.716;2022-08-20T04:32:36;13.10;;;10.35;;
12816;SDS011;6473;51.552;6.716;2022-08-20T04:35:06;14.32;;;10.65;;
12816;SDS011;6473;51.552;6.716;2022-08-20T04:37:37;13.52;;;10.88;;
12816;SDS011;6473;51.552;6.716;2022-08-20T04:40:05;14.25;;;10.20;;
12816;SDS011;6473;51.552;6.716;2022-08-20T04:42:53;14.43;;;10.55;;
12816;SDS011;6473;51.552;6.716;2022-08-20T04:45:22;15.95;;;11.20;;
12816;SDS011;6473;51.552;6.716;2022-08-20T04:47:50;13.68;;;10.88;;
12816;SDS011;6473;51.552;6.716;2022-08-20T04:50:19;13.77;;;10.73;;
12816;SDS011;6473;51.552;6.716;2022-08-20T04:52:51;14.95;;;10.02;;
12816;SDS011;6473;51.552;6.716;2022-08-20T04:55:18;12.23;;;9.52;;
12816;SDS011;6473;51.552;6.716;2022-08-20T04:57:46;14.15;;;10.48;;
12816;SDS011;6473;51.552;6.716;2022-08-20T05:00:23;14.00;;;10.55;;
12816;SDS011;6473;51.552;6.716;2022-08-20T05:02:53;15.75;;;10.77;;
12816;SDS011;6473;51.552;6.716;2022-08-20T05:05:21;14.52;;;10.00;;
12816;SDS011;6473;51.552;6.716;2022-08-20T05:07:53;13.18;;;10.60;;
12816;SDS011;6473;51.552;6.716;2022-08-20T05:10:20;15.07;;;10.55;;
12816;SDS011;6473;51.552;6.716;2022-08-20T05:12:48;13.27;;;10.75;;
12816;SDS011;6473;51.552;6.716;2022-08-20T05:15:21;11.13;;;9.98;;
12816;SDS011;6473;51.552;6.716;2022-08-20T05:17:53;15.43;;;10.60;;
12816;SDS011;6473;51.552;6.716;2022-08-20T05:20:21;12.82;;;10.43;;
12816;SDS011;6473;51.552;6.716;2022-08-20T05:22:54;11.45;;;9.40;;
12816;SDS011;6473;51.552;6.716;2022-08-20T05:25:21;12.85;;;10.27;;
12816;SDS011;6473;51.552;6.716;2022-08-20T05:27:49;14.35;;;10.00;;
12816;SDS011;6473;51.552;6.716;2022-08-20T05:30:22;13.52;;;9.90;;
12816;SDS011;6473;51.552;6.716;2022-08-20T05:32:51;12.93;;;10.15;;
12816;SDS011;6473;51.552;6.716;2022-08-20T05:35:18;13.82;;;10.50;;
12816;SDS011;6473;51.552;6.716;2022-08-20T05:37:45;11.80;;;9.90;;
12816;SDS011;6473;51.552;6.716;2022-08-20T05:40:15;13.23;;;10.25;;
12816;SDS011;6473;51.552;6.716;2022-08-20T05:42:54;15.38;;;10.45;;
12816;SDS011;6473;51.552;6.716;2022-08-20T05:45:21;13.15;;;10.55;;
12816;SDS011;6473;51.552;6.716;2022-08-20T05:48:11;13.45;;;10.25;;
12816;SDS011;6473;51.552;6.716;2022-08-20T05:53:23;14.48;;;10.95;;
12816;SDS011;6473;51.552;6.716;2022-08-20T05:55:53;13.63;;;11.23;;
12816;SDS011;6473;51.552;6.716;2022-08-20T05:58:21;14.00;;;10.32;;
12816;SDS011;6473;51.552;6.716;2022-08-20T06:00:50;14.52;;;10.98;;
12816;SDS011;6473;51.552;6.716;2022-08-20T06:03:25;14.32;;;11.20;;
12816;SDS011;6473;51.552;6.716;2022-08-20T06:06:10;14.25;;;11.15;;
12816;SDS011;6473;51.552;6.716;2022-08-20T06:08:37;14.68;;;11.25;;
12816;SDS011;6473;51.552;6.716;2022-08-20T06:11:04;12.02;;;10.65;;
12816;SDS011;6473;51.552;6.716;2022-08-20T06:13:31;15.27;;;11.27;;
12816;SDS011;6473;51.552;6.716;2022-08-20T06:15:59;16.25;;;11.32;;
12816;SDS011;6473;51.552;6.716;2022-08-20T06:18:27;12.23;;;9.75;;
12816;SDS011;6473;51.552;6.716;2022-08-20T06:20:54;14.18;;;10.48;;
12816;SDS011;6473;51.552;6.716;2022-08-20T06:23:21;11.52;;;9.95;;
12816;SDS011;6473;51.552;6.716;2022-08-20T06:25:49;14.88;;;10.52;;
12816;SDS011;6473;51.552;6.716;2022-08-20T06:28:17;12.60;;;10.55;;
12816;SDS011;6473;51.552;6.716;2022-08-20T06:30:44;13.93;;;10.90;;
12816;SDS011;6473;51.552;6.716;2022-08-20T06:33:11;13.57;;;10.07;;
12816;SDS011;6473;51.552;6.716;2022-08-20T06:35:39;16.40;;;8.65;;
12816;SDS011;6473;51.552;6.716;2022-08-20T06:38:25;8.95;;;7.38;;
12816;SDS011;6473;51.552;6.716;2022-08-20T06:40:52;9.13;;;8.13;;
12816;SDS011;6473;51.552;6.716;2022-08-20T06:43:19;9.02;;;8.07;;
12816;SDS011;6473;51.552;6.716;2022-08-20T06:45:46;12.20;;;8.80;;
12816;SDS011;6473;51.552;6.716;2022-08-20T06:48:13;11.05;;;8.43;;
12816;SDS011;6473;51.552;6.716;2022-08-20T06:50:43;10.77;;;8.98;;
12816;SDS011;6473;51.552;6.716;2022-08-20T06:53:12;12.35;;;8.80;;
12816;SDS011;6473;51.552;6.716;2022-08-20T06:55:42;10.27;;;8.13;;
12816;SDS011;6473;51.552;6.716;2022-08-20T06:58:12;12.52;;;9.23;;
12816;SDS011;6473;51.552;6.716;2022-08-20T07:00:42;14.63;;;9.20;;
12816;SDS011;6473;51.552;6.716;2022-08-20T07:03:10;10.98;;;9.55;;
12816;SDS011;6473;51.552;6.716;2022-08-20T07:05:39;9.70;;;8.48;;
12816;SDS011;6473;51.552;6.716;2022-08-20T07:08:08;11.13;;;8.93;;
12816;SDS011;6473;51.552;6.716;2022-08-20T07:10:38;11.48;;;9.88;;
12816;SDS011;6473;51.552;6.716;2022-08-20T07:13:06;11.18;;;9.43;;
12816;SDS011;6473;51.552;6.716;2022-08-20T07:15:42;13.30;;;10.65;;
12816;SDS011;6473;51.552;6.716;2022-08-20T07:18:10;13.52;;;10.75;;
12816;SDS011;6473;51.552;6.716;2022-08-20T07:20:38;11.23;;;9.95;;
12816;SDS011;6473;51.552;6.716;2022-08-20T07:23:06;15.18;;;10.40;;
12816;SDS011;6473;51.552;6.716;2022-08-20T07:25:36;16.15;;;11.00;;
12816;SDS011;6473;51.552;6.716;2022-08-20T07:28:05;14.02;;;11.15;;
12816;SDS011;6473;51.552;6.716;2022-08-20T07:30:34;15.13;;;12.00;;
12816;SDS011;6473;51.552;6.716;2022-08-20T07:33:19;16.40;;;11.82;;
12816;SDS011;6473;51.552;6.716;2022-08-20T07:35:46;15.13;;;11.65;;
12816;SDS011;6473;51.552;6.716;2022-08-20T07:38:16;16.55;;;12.38;;
12816;SDS011;6473;51.552;6.716;2022-08-20T07:40:48;14.57;;;12.02;;
12816;SDS011;6473;51.552;6.716;2022-08-20T07:43:23;17.27;;;12.35;;
12816;SDS011;6473;51.552;6.716;2022-08-20T07:46:13;11.90;;;10.50;;
12816;SDS011;6473;51.552;6.716;2022-08-20T07:49:18;11.63;;;9.82;;
12816;SDS011;6473;51.552;6.716;2022-08-20T07:51:36;12.05;;;9.80;;
12816;SDS011;6473;51.552;6.716;2022-08-20T07:54:14;12.20;;;9.85;;
12816;SDS011;6473;51.552;6.716;2022-08-20T07:56:41;12.15;;;9.55;;
12816;SDS011;6473;51.552;6.716;2022-08-20T07:59:07;12.77;;;10.15;;
12816;SDS011;6473;51.552;6.716;2022-08-20T08:01:35;12.00;;;10.20;;
12816;SDS011;6473;51.552;6.716;2022-08-20T08:04:03;11.90;;;10.70;;
12816;SDS011;6473;51.552;6.716;2022-08-20T08:06:30;12.40;;;10.70;;
12816;SDS011;6473;51.552;6.716;2022-08-20T08:08:59;11.73;;;9.90;;
12816;SDS011;6473;51.552;6.716;2022-08-20T08:11:36;11.07;;;9.77;;
12816;SDS011;6473;51.552;6.716;2022-08-20T08:14:07;11.32;;;9.57;;
12816;SDS011;6473;51.552;6.716;2022-08-20T08:16:39;13.68;;;10.20;;
12816;SDS011;6473;51.552;6.716;2022-08-20T08:19:10;10.70;;;8.73;;
12816;SDS011;6473;51.552;6.716;2022-08-20T08:21:47;9.88;;;8.70;;
12816;SDS011;6473;51.552;6.716;2022-08-20T08:24:32;12.98;;;9.57;;
12816;SDS011;6473;51.552;6.716;2022-08-20T08:27:02;15.80;;;13.77;;
12816;SDS011;6473;51.552;6.716;2022-08-20T08:29:33;21.70;;;17.10;;
12816;SDS011;6473;51.552;6.716;2022-08-20T08:35:51;20.75;;;16.45;;
12816;SDS011;6473;51.552;6.716;2022-08-20T08:38:25;21.38;;;17.58;;
12816;SDS011;6473;51.552;6.716;2022-08-20T08:41:11;24.05;;;18.70;;
12816;SDS011;6473;51.552;6.716;2022-08-20T08:43:50;23.73;;;18.88;;
12816;SDS011;6473;51.552;6.716;2022-08-20T08:46:23;22.10;;;18.25;;
12816;SDS011;6473;51.552;6.716;2022-08-20T08:48:55;23.58;;;17.42;;
12816;SDS011;6473;51.552;6.716;2022-08-20T08:51:36;24.55;;;18.23;;
12816;SDS011;6473;51.552;6.716;2022-08-20T08:54:13;23.67;;;16.05;;
12816;SDS011;6473;51.552;6.716;2022-08-20T08:56:45;18.45;;;15.40;;
12816;SDS011;6473;51.552;6.716;2022-08-20T08:59:34;19.98;;;16.73;;
12816;SDS011;6473;51.552;6.716;2022-08-20T09:02:16;19.42;;;16.75;;
12816;SDS011;6473;51.552;6.716;2022-08-20T09:04:53;19.88;;;17.00;;
12816;SDS011;6473;51.552;6.716;2022-08-20T09:07:23;21.65;;;16.38;;
12816;SDS011;6473;51.552;6.716;2022-08-20T09:09:52;18.05;;;16.15;;
12816;SDS011;6473;51.552;6.716;2022-08-20T09:12:20;18.20;;;15.73;;
12816;SDS011;6473;51.552;6.716;2022-08-20T09:14:53;22.17;;;15.13;;
12816;SDS011;6473;51.552;6.716;2022-08-20T09:17:32;20.15;;;16.52;;
12816;SDS011;6473;51.552;6.716;2022-08-20T09:20:07;19.83;;;15.82;;
12816;SDS011;6473;51.552;6.716;2022-08-20T09:22:38;22.38;;;17.02;;
12816;SDS011;6473;51.552;6.716;2022-08-20T09:25:07;22.60;;;16.00;;
12816;SDS011;6473;51.552;6.716;2022-08-20T09:27:37;19.48;;;14.88;;
12816;SDS011;6473;51.552;6.716;2022-08-20T09:30:07;21.80;;;15.23;;
12816;SDS011;6473;51.552;6.716;2022-08-20T09:32:35;20.42;;;14.57;;
12816;SDS011;6473;51.552;6.716;2022-08-20T09:35:08;20.58;;;14.23;;
12816;SDS011;6473;51.552;6.716;2022-08-20T09:37:37;20.67;;;15.40;;
12816;SDS011;6473;51.552;6.716;2022-08-20T09:40:11;19.80;;;14.63;;
12816;SDS011;6473;51.552;6.716;2022-08-20T09:42:52;19.05;;;13.95;;
12816;SDS011;6473;51.552;6.716;2022-08-20T09:45:24;19.60;;;14.60;;
12816;SDS011;6473;51.552;6.716;2022-08-20T09:48:13;18.10;;;13.63;;
12816;SDS011;6473;51.552;6.716;2022-08-20T09:50:48;14.60;;;12.65;;
12816;SDS011;6473;51.552;6.716;2022-08-20T09:53:16;15.65;;;13.80;;
12816;SDS011;6473;51.552;6.716;2022-08-20T09:56:00;15.85;;;12.02;;
12816;SDS011;6473;51.552;6.716;2022-08-20T10:01:24;15.40;;;12.65;;
12816;SDS011;6473;51.552;6.716;2022-08-20T10:03:52;16.95;;;12.07;;
12816;SDS011;6473;51.552;6.716;2022-08-20T10:06:49;12.52;;;9.85;;
12816;SDS011;6473;51.552;6.716;2022-08-20T10:09:19;15.32;;;10.98;;
12816;SDS011;6473;51.552;6.716;2022-08-20T10:11:46;13.65;;;11.05;;
12816;SDS011;6473;51.552;6.716;2022-08-20T10:14:13;12.98;;;10.88;;
12816;SDS011;6473;51.552;6.716;2022-08-20T10:16:56;15.23;;;11.65;;
12816;SDS011;6473;51.552;6.716;2022-08-20T10:19:58;11.93;;;10.48;;
12816;SDS011;6473;51.552;6.716;2022-08-20T10:22:29;11.48;;;9.77;;
12816;SDS011;6473;51.552;6.716;2022-08-20T10:25:09;13.85;;;10.82;;
12816;SDS011;6473;51.552;6.716;2022-08-20T10:27:37;10.23;;;9.13;;
12816;SDS011;6473;51.552;6.716;2022-08-20T10:30:05;11.63;;;9.15;;
12816;SDS011;6473;51.552;6.716;2022-08-20T10:32:40;10.88;;;8.50;;
12816;SDS011;6473;51.552;6.716;2022-08-20T10:35:08;11.10;;;9.52;;
12816;SDS011;6473;51.552;6.716;2022-08-20T10:37:35;8.02;;;6.90;;
12816;SDS011;6473;51.552;6.716;2022-08-20T10:40:02;11.00;;;9.32;;
12816;SDS011;6473;51.552;6.716;2022-08-20T10:42:30;10.25;;;7.53;;
12816;SDS011;6473;51.552;6.716;2022-08-20T10:44:57;12.05;;;7.43;;
12816;SDS011;6473;51.552;6.716;2022-08-20T10:47:25;9.20;;;7.88;;
12816;SDS011;6473;51.552;6.716;2022-08-20T10:49:56;8.85;;;7.55;;
12816;SDS011;6473;51.552;6.716;2022-08-20T10:52:25;9.80;;;8.63;;
12816;SDS011;6473;51.552;6.716;2022-08-20T10:54:56;10.20;;;8.75;;
12816;SDS011;6473;51.552;6.716;2022-08-20T10:57:24;11.93;;;10.57;;
12816;SDS011;6473;51.552;6.716;2022-08-20T11:00:20;13.20;;;10.85;;
12816;SDS011;6473;51.552;6.716;2022-08-20T11:03:26;14.88;;;11.52;;
12816;SDS011;6473;51.552;6.716;2022-08-20T11:14:58;15.20;;;11.90;;
12816;SDS011;6473;51.552;6.716;2022-08-20T11:20:48;15.90;;;10.90;;
12816;SDS011;6473;51.552;6.716;2022-08-20T11:23:37;13.52;;;11.23;;
12816;SDS011;6473;51.552;6.716;2022-08-20T11:26:42;13.05;;;10.63;;
12816;SDS011;6473;51.552;6.716;2022-08-20T11:29:28;12.50;;;10.05;;
12816;SDS011;6473;51.552;6.716;2022-08-20T11:31:55;13.27;;;10.68;;
12816;SDS011;6473;51.552;6.716;2022-08-20T11:34:55;14.13;;;11.23;;
12816;SDS011;6473;51.552;6.716;2022-08-20T11:37:27;14.02;;;11.15;;
12816;SDS011;6473;51.552;6.716;2022-08-20T11:39:59;14.55;;;11.93;;
12816;SDS011;6473;51.552;6.716;2022-08-20T11:42:27;13.38;;;10.13;;
12816;SDS011;6473;51.552;6.716;2022-08-20T11:44:57;12.07;;;10.02;;
12816;SDS011;6473;51.552;6.716;2022-08-20T11:47:43;7.85;;;6.18;;
12816;SDS011;6473;51.552;6.716;2022-08-20T11:50:22;8.40;;;3.30;;
12816;SDS011;6473;51.552;6.716;2022-08-20T11:52:53;4.72;;;2.90;;
12816;SDS011;6473;51.552;6.716;2022-08-20T11:55:21;3.40;;;2.92;;
12816;SDS011;6473;51.552;6.716;2022-08-20T11:57:49;3.15;;;2.90;;
12816;SDS011;6473;51.552;6.716;2022-08-20T12:00:22;3.53;;;2.83;;
12816;SDS011;6473;51.552;6.716;2022-08-20T12:03:07;4.32;;;2.75;;
12816;SDS011;6473;51.552;6.716;2022-08-20T12:05:45;2.72;;;2.40;;
12816;SDS011;6473;51.552;6.716;2022-08-20T12:08:13;3.60;;;2.25;;
12816;SDS011;6473;51.552;6.716;2022-08-20T12:10:52;4.00;;;2.15;;
12816;SDS011;6473;51.552;6.716;2022-08-20T12:13:41;5.53;;;2.30;;
12816;SDS011;6473;51.552;6.716;2022-08-20T12:16:28;3.33;;;2.28;;
12816;SDS011;6473;51.552;6.716;2022-08-20T12:18:58;4.13;;;2.00;;
12816;SDS011;6473;51.552;6.716;2022-08-20T12:21:37;3.30;;;2.33;;
12816;SDS011;6473;51.552;6.716;2022-08-20T12:24:22;3.03;;;1.90;;
12816;SDS011;6473;51.552;6.716;2022-08-20T12:26:55;3.75;;;1.88;;
12816;SDS011;6473;51.552;6.716;2022-08-20T12:29:47;3.92;;;2.20;;
12816;SDS011;6473;51.552;6.716;2022-08-20T12:32:29;4.00;;;2.78;;
12816;SDS011;6473;51.552;6.716;2022-08-20T12:35:22;4.00;;;2.30;;
12816;SDS011;6473;51.552;6.716;2022-08-20T12:38:00;7.13;;;3.15;;
12816;SDS011;6473;51.552;6.716;2022-08-20T12:40:38;3.50;;;2.33;;
12816;SDS011;6473;51.552;6.716;2022-08-20T12:43:07;2.80;;;2.25;;
12816;SDS011;6473;51.552;6.716;2022-08-20T12:45:51;3.58;;;2.78;;
12816;SDS011;6473;51.552;6.716;2022-08-20T12:48:37;4.18;;;2.30;;
12816;SDS011;6473;51.552;6.716;2022-08-20T12:51:04;4.80;;;2.28;;
12816;SDS011;6473;51.552;6.716;2022-08-20T12:53:44;3.67;;;2.35;;
12816;SDS011;6473;51.552;6.716;2022-08-20T12:56:11;3.53;;;2.58;;
12816;SDS011;6473;51.552;6.716;2022-08-20T12:58:58;3.85;;;2.15;;
12816;SDS011;6473;51.552;6.716;2022-08-20T13:01:25;4.03;;;2.47;;
12816;SDS011;6473;51.552;6.716;2022-08-20T13:04:07;3.42;;;2.25;;
12816;SDS011;6473;51.552;6.716;2022-08-20T13:06:47;2.65;;;2.08;;
12816;SDS011;6473;51.552;6.716;2022-08-20T13:09:20;5.28;;;2.35;;
12816;SDS011;6473;51.552;6.716;2022-08-20T13:11:49;3.42;;;1.90;;
12816;SDS011;6473;51.552;6.716;2022-08-20T13:14:42;4.00;;;2.35;;
12816;SDS011;6473;51.552;6.716;2022-08-20T13:17:35;4.35;;;2.63;;
12816;SDS011;6473;51.552;6.716;2022-08-20T13:20:03;5.78;;;2.13;;
12816;SDS011;6473;51.552;6.716;2022-08-20T13:22:33;5.05;;;1.80;;
12816;SDS011;6473;51.552;6.716;2022-08-20T13:25:19;4.82;;;2.40;;
12816;SDS011;6473;51.552;6.716;2022-08-20T13:28:04;6.20;;;2.22;;
12816;SDS011;6473;51.552;6.716;2022-08-20T13:30:42;2.90;;;2.20;;
12816;SDS011;6473;51.552;6.716;2022-08-20T13:33:18;2.28;;;1.92;;
12816;SDS011;6473;51.552;6.716;2022-08-20T13:35:58;3.20;;;2.08;;
12816;SDS011;6473;51.552;6.716;2022-08-20T13:38:30;2.83;;;1.80;;
12816;SDS011;6473;51.552;6.716;2022-08-20T13:41:02;3.60;;;1.88;;
12816;SDS011;6473;51.552;6.716;2022-08-20T13:43:29;3.92;;;1.85;;
12816;SDS011;6473;51.552;6.716;2022-08-20T13:48:44;3.83;;;1.80;;
12816;SDS011;6473;51.552;6.716;2022-08-20T13:51:54;2.08;;;1.88;;
12816;SDS011;6473;51.552;6.716;2022-08-20T13:54:13;2.13;;;1.75;;
12816;SDS011;6473;51.552;6.716;2022-08-20T13:56:41;2.70;;;2.15;;
12816;SDS011;6473;51.552;6.716;2022-08-20T13:59:08;4.90;;;2.00;;
12816;SDS011;6473;51.552;6.716;2022-08-20T14:01:39;4.72;;;1.80;;
12816;SDS011;6473;51.552;6.716;2022-08-20T14:04:19;4.88;;;1.60;;
12816;SDS011;6473;51.552;6.716;2022-08-20T14:07:25;4.07;;;1.88;;
12816;SDS011;6473;51.552;6.716;2022-08-20T14:09:57;2.80;;;1.60;;
12816;SDS011;6473;51.552;6.716;2022-08-20T14:12:28;4.82;;;2.08;;
12816;SDS011;6473;51.552;6.716;2022-08-20T14:14:56;4.57;;;2.10;;
12816;SDS011;6473;51.552;6.716;2022-08-20T14:20:20;5.75;;;2.10;;
12816;SDS011;6473;51.552;6.716;2022-08-20T14:25:36;4.13;;;2.00;;
12816;SDS011;6473;51.552;6.716;2022-08-20T14:28:10;3.42;;;1.90;;
12816;SDS011;6473;51.552;6.716;2022-08-20T14:30:45;3.83;;;1.75;;
12816;SDS011;6473;51.552;6.716;2022-08-20T14:33:27;4.07;;;1.70;;
12816;SDS011;6473;51.552;6.716;2022-08-20T14:35:57;4.35;;;1.77;;
12816;SDS011;6473;51.552;6.716;2022-08-20T14:38:38;5.03;;;2.08;;
12816;SDS011;6473;51.552;6.716;2022-08-20T14:41:09;4.68;;;2.22;;
12816;SDS011;6473;51.552;6.716;2022-08-20T14:43:39;3.95;;;2.03;;
12816;SDS011;6473;51.552;6.716;2022-08-20T14:46:09;3.45;;;1.88;;
12816;SDS011;6473;51.552;6.716;2022-08-20T14:48:48;6.07;;;2.05;;
12816;SDS011;6473;51.552;6.716;2022-08-20T14:51:18;5.53;;;1.77;;
12816;SDS011;6473;51.552;6.716;2022-08-20T14:53:46;4.05;;;1.80;;
12816;SDS011;6473;51.552;6.716;2022-08-20T14:56:13;5.20;;;1.73;;
12816;SDS011;6473;51.552;6.716;2022-08-20T14:58:44;4.32;;;1.85;;
12816;SDS011;6473;51.552;6.716;2022-08-20T15:01:12;3.03;;;1.90;;
12816;SDS011;6473;51.552;6.716;2022-08-20T15:03:49;3.75;;;1.55;;
12816;SDS011;6473;51.552;6.716;2022-08-20T15:09:04;5.00;;;1.70;;
12816;SDS011;6473;51.552;6.716;2022-08-20T15:11:31;6.15;;;1.83;;
12816;SDS011;6473;51.552;6.716;2022-08-20T15:14:11;3.15;;;1.77;;
12816;SDS011;6473;51.552;6.716;2022-08-20T15:16:41;4.15;;;2.33;;
12816;SDS011;6473;51.552;6.716;2022-08-20T15:19:15;3.92;;;1.83;;
12816;SDS011;6473;51.552;6.716;2022-08-20T15:21:55;7.03;;;2.28;;
12816;SDS011;6473;51.552;6.716;2022-08-20T15:24:24;3.58;;;1.45;;
12816;SDS011;6473;51.552;6.716;2022-08-20T15:27:13;3.85;;;1.50;;
12816;SDS011;6473;51.552;6.716;2022-08-20T15:29:42;2.90;;;1.45;;
12816;SDS011;6473;51.552;6.716;2022-08-20T15:32:18;4.47;;;1.55;;
12816;SDS011;6473;51.552;6.716;2022-08-20T15:34:48;3.60;;;2.00;;
12816;SDS011;6473;51.552;6.716;2022-08-20T15:37:16;4.07;;;1.70;;
12816;SDS011;6473;51.552;6.716;2022-08-20T15:39:47;4.65;;;2.17;;
12816;SDS011;6473;51.552;6.716;2022-08-20T15:42:15;4.25;;;1.73;;
12816;SDS011;6473;51.552;6.716;2022-08-20T15:44:43;3.97;;;1.50;;
12816;SDS011;6473;51.552;6.716;2022-08-20T15:47:13;6.10;;;1.60;;
12816;SDS011;6473;51.552;6.716;2022-08-20T15:49:45;4.55;;;1.60;;
12816;SDS011;6473;51.552;6.716;2022-08-20T15:52:19;2.88;;;1.40;;
12816;SDS011;6473;51.552;6.716;2022-08-20T15:54:46;4.00;;;1.70;;
12816;SDS011;6473;51.552;6.716;2022-08-20T15:57:18;4.57;;;1.50;;
12816;SDS011;6473;51.552;6.716;2022-08-20T16:00:00;3.47;;;1.60;;